Decoded Metar for KDDC (DODGE CITY in KS, USA) (IATA:DDC) | Meteo·Mobile Aviation Weather
aviador You're here:

KDDC Decoded Metar

DODGE CITY in KS, USA
Report Time2019-06-18 14:52:00
UTC Time2019-06-18 15:29:07
Flight Rules vfr VFR
Wind130° at 05 kt
W.Decomp.*RWY 14: 4.8 kt HW 1.5 kt LCW
RWY 20: 1.0 kt HW 4.9 kt LCW
Visibility9999 m
Phenomena:N/A
Clouds:Broken 034 Hf
Overcast 100 Hf
Expected CloudBase > 1,200 ft AGL from Temp-Dew spread
Ceiling3,400 ft
Temp21°C (ISA +11)
Dew Point18°C (83% RH)
QNH1015 hPa
Density Alt4,101 ft
Elevation2,589 ft
Report Wrong Elevation
Raw Report
KDDC 181452Z AUTO 13005KT 9SM BKN034 OVC100 21/18 A2998 RMK AO2
SLP129 T02060183 53005=

Extra information for KDDC:More info

Metar Taf Metar & Taf Last 4 Metars F.Rules Stats Wind Profile Meteogram Temp Stats Airport Information Weather charts Add Link Nearby VenuesMetar ALERT Operation Metar Decoded Social comments

AIRNAV info for KDDC